Terminal Aerodrome Forecast
Issued by NWS

Home | Current Version | Previous Version | Text Only | Print | Product List | Glossary On
Versions: 1 2 3 4 5 6 7 8 9 10 11 12 13 14 15 16 17 18
000
FTAK31 PAJN 230500
TAFAGY
TAF
PAGY 230523Z 2306/2406 21010KT P6SM VCSH BKN050 BKN080
     FM231200 VRB03KT P6SM SCT050 BKN080
     FM231900 VRB05KT P6SM SCT080
     FM240300 04006KT P6SM SCT100
      AMD LTD TO CLD VIS AND WIND=

USA.gov is the U.S. government's official web portal to all federal, state and local government web resources and services.